Tuesday, February 20, 2018, 4:25 AM EST
Back to Local

KASH, Nashua, Boire Field Airport

Location: Nashua, NH, United States Lat: 42.782
Local Time: 4:25 AM EST ( 9:25 GMT) Lon: -71.515
Time Zone: US/Eastern Elev: 200 ft

Show me the last for .
Show Decoded

2018-02-20 04:06 METAR KASH 200906Z AUTO 00000KT 1SM BR OVC009 07/07 A3021 RMK AO2 VIS 1/2V5 CIG
                 008V013 =
2018-02-20 03:56 METAR KASH 200856Z AUTO 00000KT 2SM BR OVC009 08/08 A3022 RMK AO2 VIS 1/2V5
                 RAE26 SLP244 P0002 60003 T00830083 55007 TSNO =
2018-02-20 02:56 METAR KASH 200756Z AUTO VRB03KT 7SM -RA OVC009 09/09 A3022 RMK AO2 RAB05 SLP243
                 P0001 T00940089 =
2018-02-20 01:56 METAR KASH 200656Z AUTO 22004KT 10SM BKN013 OVC044 09/09 A3023 RMK AO2 RAB10E54
                 SLP249 P0000 T00940089 =
2018-02-20 01:51 METAR KASH 200651Z AUTO VRB04KT 10SM -RA BKN013 OVC044 09/09 A3024 RMK AO2 RAB10
                 P0000 =
2018-02-20 01:06 METAR KASH 200606Z AUTO VRB04KT 10SM SCT016 SCT050 OVC065 09/08 A3024 RMK AO2 =
2018-02-20 00:56 METAR KASH 200556Z AUTO 23007KT 180V260 10SM BKN016 OVC070 09/08 A3024 RMK AO2
                 SLP250 60002 T00890083 10089 20039 58014 =
2018-02-19 23:56 METAR KASH 200456Z AUTO VRB04KT 10SM BKN018 OVC065 08/08 A3025 RMK AO2 RAE26
                 SLP254 P0000 T00830078 =
2018-02-19 23:45 METAR KASH 200445Z AUTO VRB03KT 10SM BKN018 BKN050 OVC065 08/08 A3025 RMK AO2
                 RAE26 P0000 =
2018-02-19 23:05 METAR KASH 200405Z AUTO 00000KT 8SM -RA FEW017 SCT065 OVC095 05/05 A3026 RMK AO2
                 P0000 =
2018-02-19 22:56 METAR KASH 200356Z AUTO 00000KT 2 1/2SM -RA BR FEW017 SCT065 OVC095 04/04 A3027
                 RMK AO2 VIS 1 1/4V5 RAE01B49 SLP262 P0000 T00440044 400891094 =
2018-02-19 22:14 METAR KASH 200314Z AUTO 12003KT 10SM SCT004 SCT021 OVC100 06/06 A3026 RMK AO2
                 RAE01 P0000 =
2018-02-19 21:56 METAR KASH 200256Z AUTO 13003KT 10SM -RA FEW004 BKN021 OVC095 06/06 A3028 RMK
                 AO2 SLP264 P0001 60002 T00560056 58010 =
2018-02-19 21:47 METAR KASH 200247Z AUTO 14003KT 4SM -RA BR FEW006 SCT019 OVC095 05/05 A3028 RMK
                 AO2 P0001 =
2018-02-19 20:56 METAR KASH 200156Z 13003KT 6SM -RA BR OVC015 04/04 A3030 RMK AO2 SLP273 P0001
                 T00440044 =
2018-02-19 19:56 METAR KASH 200056Z VRB04KT 10SM -RA OVC017 06/05 A3030 RMK AO2 SLP272 P0000
                 T00610050 =
2018-02-19 18:56 METAR KASH 192356Z VRB03KT 10SM -RA SCT024 OVC031 07/03 A3030 RMK AO2 RAB15
                 SLP274 P0000 60000 T00670033 10089 20067 58015 =
2018-02-19 17:56 METAR KASH 192256Z 18004KT 10SM OVC035 07/02 A3032 RMK AO2 SLP280 T00720017 =
2018-02-19 16:56 METAR KASH 192156Z 19004KT 10SM OVC041 08/01 A3034 RMK AO2 RAB19E33 SLP284 P0000
                 T00780006 =
2018-02-19 15:56 METAR KASH 192056Z 19005G12KT 10SM OVC043 08/01 A3035 RMK AO2 SLP288 T00780006
                 56020 =
2018-02-19 14:56 METAR KASH 191956Z COR 15005G12KT 10SM OVC043 08/M01 A3035 RMK AO2 SLP290
                 T00831006 =
2018-02-19 13:56 METAR KASH 191856Z COR 20007G14KT 130V280 10SM SCT048 08/M01 A3037 RMK AO2
                 SLP295 T00831011 =
2018-02-19 12:56 METAR KASH 191756Z VRB05KT 10SM CLR 08/M02 A3041 RMK AO2 SLP309 T00781017 10078
                 21089 56041 =
2018-02-19 11:56 METAR KASH 191656Z VRB06KT 10SM CLR 07/M01 A3043 RMK AO2 SLP315 T00671011 =
2018-02-19 10:56 METAR KASH 191556Z 16007KT 10SM CLR 05/M02 A3048 RMK AO2 SLP333 T00501022 =
2018-02-19 09:56 METAR KASH 191456Z VRB03KT 10SM CLR 02/M04 A3053 RMK AO2 SLP350 T00221039 55006
                 =
2018-02-19 08:56 METAR KASH 191356Z VRB03KT 10SM CLR M01/M02 A3052 RMK AO2 SLP347 T10061017 =
2018-02-19 07:56 METAR KASH 191256Z 11003KT 10SM CLR M07/M08 A3053 RMK AO2 SLP350 T10671078 =
2018-02-19 06:56 METAR KASH 191156Z 00000KT 10SM CLR M09/M10 A3055 RMK AO2 SLP356 70029 T10891100
                 11072 21094 50009 =
2018-02-19 05:56 METAR KASH 191056Z AUTO 00000KT 10SM CLR M09/M10 A3055 RMK AO2 SLP356 T10941100
                 =
2018-02-19 04:56 METAR KASH 190956Z AUTO 00000KT 10SM CLR M08/M09 A3054 RMK AO2 SLP353 T10831089
                 =

Support USWX by starting your Amazon purchase here.